SWA1557 KATL-KMDW
Flight info
| Callsign | SWA1557 |
|---|---|
| Flight time | 1h 29m |
| Altitude | 32000 |
| Route | VARNM2 RESPE IIU DROSE FISSK7 |
| Aircraft | B38M/M-SDE1FGHILORVWXY/HB1 |
Departure
| Time | 2026-05-05 21:43 |
|---|---|
| Airport | Hartsfield Jackson Atlanta International Airport (KATL) |
Arrival
| Time | 2026-05-05 23:12 |
|---|---|
| Airport | Chicago Midway International Airport (KMDW) |
| Time | Latitude | Longitude | Altitude | Speed | Heading |
|---|---|---|---|---|---|
| 2026-05-05 20:57 | 33.64007 | -84.43199 | 1038 ft | 0 kts | 268° |
| 2026-05-05 21:30 | 33.64008 | -84.43191 | 1038 ft | 1 kts | 268° |
| 2026-05-05 21:30 | 33.64008 | -84.43181 | 1038 ft | 2 kts | 268° |
| 2026-05-05 21:30 | 33.64010 | -84.43161 | 1038 ft | 3 kts | 253° |
| 2026-05-05 21:30 | 33.64023 | -84.43140 | 1038 ft | 3 kts | 214° |
| 2026-05-05 21:31 | 33.64041 | -84.43132 | 1038 ft | 0 kts | 179° |
| 2026-05-05 21:34 | 33.64026 | -84.43132 | 1038 ft | 7 kts | 180° |
| 2026-05-05 21:34 | 33.63955 | -84.43132 | 1038 ft | 12 kts | 180° |
| 2026-05-05 21:34 | 33.63886 | -84.43132 | 1038 ft | 9 kts | 180° |
| 2026-05-05 21:35 | 33.63816 | -84.43133 | 1038 ft | 11 kts | 180° |
| 2026-05-05 21:35 | 33.63736 | -84.43132 | 1038 ft | 12 kts | 179° |
| 2026-05-05 21:35 | 33.63693 | -84.43118 | 1038 ft | 6 kts | 149° |
| 2026-05-05 21:35 | 33.63668 | -84.43071 | 1038 ft | 8 kts | 101° |
| 2026-05-05 21:36 | 33.63665 | -84.42998 | 1037 ft | 10 kts | 91° |
| 2026-05-05 21:36 | 33.63664 | -84.42907 | 1037 ft | 12 kts | 91° |
| 2026-05-05 21:36 | 33.63663 | -84.42800 | 1038 ft | 14 kts | 89° |
| 2026-05-05 21:36 | 33.63659 | -84.42726 | 1038 ft | 8 kts | 95° |
| 2026-05-05 21:37 | 33.63656 | -84.42655 | 1038 ft | 9 kts | 91° |
| 2026-05-05 21:37 | 33.63655 | -84.42569 | 1038 ft | 11 kts | 91° |
| 2026-05-05 21:37 | 33.63656 | -84.42465 | 1038 ft | 13 kts | 90° |
| 2026-05-05 21:37 | 33.63655 | -84.42344 | 1038 ft | 15 kts | 90° |
| 2026-05-05 21:38 | 33.63655 | -84.42225 | 1038 ft | 14 kts | 90° |
| 2026-05-05 21:38 | 33.63656 | -84.42099 | 1038 ft | 16 kts | 89° |
| 2026-05-05 21:38 | 33.63657 | -84.41957 | 1038 ft | 18 kts | 90° |
| 2026-05-05 21:38 | 33.63656 | -84.41797 | 1038 ft | 20 kts | 91° |
| 2026-05-05 21:39 | 33.63654 | -84.41664 | 1038 ft | 16 kts | 90° |
| 2026-05-05 21:39 | 33.63655 | -84.41629 | 1038 ft | 4 kts | 88° |
| 2026-05-05 21:39 | 33.63656 | -84.41581 | 1037 ft | 7 kts | 89° |
| 2026-05-05 21:39 | 33.63656 | -84.41512 | 1037 ft | 10 kts | 90° |
| 2026-05-05 21:40 | 33.63656 | -84.41412 | 1037 ft | 14 kts | 90° |
| 2026-05-05 21:40 | 33.63656 | -84.41302 | 1037 ft | 14 kts | 90° |
| 2026-05-05 21:40 | 33.63657 | -84.41171 | 1038 ft | 17 kts | 90° |
| 2026-05-05 21:40 | 33.63656 | -84.41049 | 1038 ft | 12 kts | 90° |
| 2026-05-05 21:41 | 33.63656 | -84.40933 | 1038 ft | 16 kts | 90° |
| 2026-05-05 21:41 | 33.63656 | -84.40860 | 1038 ft | 8 kts | 90° |
| 2026-05-05 21:41 | 33.63652 | -84.40790 | 1038 ft | 9 kts | 110° |
| 2026-05-05 21:41 | 33.63600 | -84.40750 | 1038 ft | 10 kts | 174° |
| 2026-05-05 21:42 | 33.63526 | -84.40748 | 1039 ft | 11 kts | 184° |
| 2026-05-05 21:42 | 33.63472 | -84.40817 | 1039 ft | 16 kts | 269° |
| 2026-05-05 21:42 | 33.63471 | -84.41237 | 1037 ft | 93 kts | 270° |
| 2026-05-05 21:42 | 33.63468 | -84.42311 | 1067 ft | 158 kts | 271° |
| 2026-05-05 21:43 | 33.63489 | -84.43772 | 1372 ft | 191 kts | 269° |
| 2026-05-05 21:43 | 33.63463 | -84.45399 | 2218 ft | 189 kts | 266° |
| 2026-05-05 21:43 | 33.63465 | -84.46988 | 3232 ft | 201 kts | 265° |
| 2026-05-05 21:43 | 33.63463 | -84.48762 | 3794 ft | 227 kts | 266° |
| 2026-05-05 21:44 | 33.63599 | -84.50736 | 4568 ft | 253 kts | 283° |
| 2026-05-05 21:44 | 33.64535 | -84.52627 | 5332 ft | 279 kts | 311° |
| 2026-05-05 21:44 | 33.65946 | -84.54242 | 6467 ft | 278 kts | 311° |
| 2026-05-05 21:44 | 33.67331 | -84.55871 | 7599 ft | 279 kts | 311° |
| 2026-05-05 21:45 | 33.68814 | -84.57363 | 8801 ft | 281 kts | 327° |
| 2026-05-05 21:45 | 33.70695 | -84.58070 | 10012 ft | 289 kts | 349° |
| 2026-05-05 21:45 | 33.72725 | -84.58109 | 10988 ft | 294 kts | 354° |
| 2026-05-05 21:45 | 33.74792 | -84.58113 | 11903 ft | 299 kts | 354° |
| 2026-05-05 21:46 | 33.76876 | -84.58106 | 12830 ft | 301 kts | 354° |
| 2026-05-05 21:46 | 33.78948 | -84.58089 | 13732 ft | 304 kts | 354° |
| 2026-05-05 21:46 | 33.81084 | -84.58074 | 14486 ft | 310 kts | 353° |
| 2026-05-05 21:46 | 33.83300 | -84.58092 | 14884 ft | 329 kts | 354° |
| 2026-05-05 21:47 | 33.85657 | -84.58146 | 15183 ft | 348 kts | 353° |
| 2026-05-05 21:47 | 33.88119 | -84.58223 | 15581 ft | 363 kts | 353° |
| 2026-05-05 21:47 | 33.90669 | -84.58300 | 16235 ft | 367 kts | 353° |
| 2026-05-05 21:47 | 33.93237 | -84.58376 | 16974 ft | 371 kts | 354° |
| 2026-05-05 21:48 | 33.95829 | -84.58453 | 17703 ft | 375 kts | 354° |
| 2026-05-05 21:48 | 33.98452 | -84.58531 | 18375 ft | 379 kts | 354° |
| 2026-05-05 21:48 | 34.01056 | -84.58610 | 18973 ft | 381 kts | 354° |
| 2026-05-05 21:48 | 34.03712 | -84.58689 | 19597 ft | 383 kts | 353° |
| 2026-05-05 21:49 | 34.06387 | -84.58769 | 20225 ft | 385 kts | 353° |
| 2026-05-05 21:49 | 34.09073 | -84.58849 | 20828 ft | 387 kts | 353° |
| 2026-05-05 21:49 | 34.11764 | -84.58929 | 21467 ft | 389 kts | 352° |
| 2026-05-05 21:49 | 34.14479 | -84.59010 | 22067 ft | 391 kts | 352° |
| 2026-05-05 21:50 | 34.17208 | -84.59091 | 22644 ft | 393 kts | 352° |
| 2026-05-05 21:50 | 34.19951 | -84.59173 | 23202 ft | 396 kts | 352° |
| 2026-05-05 21:50 | 34.22676 | -84.59254 | 23728 ft | 398 kts | 352° |
| 2026-05-05 21:50 | 34.25453 | -84.59336 | 24190 ft | 400 kts | 352° |
| 2026-05-05 21:51 | 34.28239 | -84.59451 | 24630 ft | 400 kts | 347° |
| 2026-05-05 21:51 | 34.30951 | -84.60058 | 25054 ft | 397 kts | 342° |
| 2026-05-05 21:51 | 34.33664 | -84.60726 | 25505 ft | 398 kts | 342° |
| 2026-05-05 21:51 | 34.36384 | -84.61392 | 25930 ft | 402 kts | 342° |
| 2026-05-05 21:52 | 34.41915 | -84.62751 | 26721 ft | 408 kts | 341° |
| 2026-05-05 21:52 | 34.44667 | -84.63427 | 27143 ft | 410 kts | 341° |
| 2026-05-05 21:52 | 34.47474 | -84.64118 | 27529 ft | 413 kts | 341° |
| 2026-05-05 21:53 | 34.50294 | -84.64813 | 27945 ft | 415 kts | 341° |
| 2026-05-05 21:53 | 34.53133 | -84.65513 | 28353 ft | 417 kts | 341° |
| 2026-05-05 21:53 | 34.55989 | -84.66217 | 28716 ft | 421 kts | 341° |
| 2026-05-05 21:53 | 34.58865 | -84.66928 | 29068 ft | 423 kts | 341° |
| 2026-05-05 21:54 | 34.61739 | -84.67637 | 29586 ft | 423 kts | 341° |
| 2026-05-05 21:54 | 34.64597 | -84.68343 | 29923 ft | 427 kts | 341° |
| 2026-05-05 21:54 | 34.67524 | -84.69067 | 30245 ft | 430 kts | 341° |
| 2026-05-05 21:54 | 34.70454 | -84.69793 | 30652 ft | 430 kts | 341° |
| 2026-05-05 21:55 | 34.73383 | -84.70518 | 31075 ft | 429 kts | 341° |
| 2026-05-05 21:55 | 34.76295 | -84.71240 | 31639 ft | 425 kts | 340° |
| 2026-05-05 21:55 | 34.79186 | -84.71957 | 31968 ft | 423 kts | 340° |
| 2026-05-05 21:56 | 34.84881 | -84.73371 | 32003 ft | 416 kts | 340° |
| 2026-05-05 21:56 | 34.90548 | -84.74780 | 32010 ft | 416 kts | 340° |
| 2026-05-05 21:57 | 34.96177 | -84.76182 | 31984 ft | 416 kts | 340° |
| 2026-05-05 21:57 | 35.01851 | -84.77597 | 31972 ft | 416 kts | 340° |
| 2026-05-05 21:58 | 35.07527 | -84.79015 | 31956 ft | 416 kts | 340° |
| 2026-05-05 21:58 | 35.13190 | -84.80431 | 31959 ft | 416 kts | 340° |
| 2026-05-05 21:59 | 35.18829 | -84.81843 | 31951 ft | 417 kts | 340° |
| 2026-05-05 21:59 | 35.24506 | -84.83267 | 31946 ft | 417 kts | 340° |
| 2026-05-05 22:00 | 35.30186 | -84.84694 | 31947 ft | 417 kts | 340° |
| 2026-05-05 22:00 | 35.35849 | -84.86118 | 31947 ft | 416 kts | 340° |
| 2026-05-05 22:01 | 35.41531 | -84.87550 | 31959 ft | 418 kts | 340° |
| 2026-05-05 22:01 | 35.47220 | -84.88984 | 31955 ft | 421 kts | 340° |
| 2026-05-05 22:02 | 35.52957 | -84.90433 | 31946 ft | 421 kts | 340° |
| 2026-05-05 22:02 | 35.58679 | -84.91881 | 31937 ft | 421 kts | 340° |
| 2026-05-05 22:03 | 35.64418 | -84.93334 | 31887 ft | 422 kts | 340° |
| 2026-05-05 22:03 | 35.67297 | -84.94065 | 32007 ft | 424 kts | 341° |
| 2026-05-05 22:03 | 35.70145 | -84.94788 | 31940 ft | 423 kts | 341° |
| 2026-05-05 22:04 | 35.75905 | -84.96251 | 31930 ft | 423 kts | 341° |
| 2026-05-05 22:04 | 35.81672 | -84.97719 | 31925 ft | 423 kts | 341° |
| 2026-05-05 22:05 | 35.87434 | -84.99187 | 31940 ft | 423 kts | 341° |
| 2026-05-05 22:05 | 35.93200 | -85.00659 | 31952 ft | 423 kts | 341° |
| 2026-05-05 22:06 | 35.98928 | -85.02122 | 31953 ft | 423 kts | 341° |
| 2026-05-05 22:06 | 36.04694 | -85.03598 | 31951 ft | 423 kts | 341° |
| 2026-05-05 22:07 | 36.10451 | -85.05072 | 31956 ft | 423 kts | 340° |
| 2026-05-05 22:07 | 36.16201 | -85.06549 | 31958 ft | 422 kts | 340° |
| 2026-05-05 22:08 | 36.21928 | -85.08022 | 31912 ft | 424 kts | 340° |
| 2026-05-05 22:08 | 36.27715 | -85.09512 | 31916 ft | 424 kts | 340° |
| 2026-05-05 22:09 | 36.33469 | -85.10996 | 31901 ft | 423 kts | 340° |
| 2026-05-05 22:09 | 36.39214 | -85.12485 | 31876 ft | 417 kts | 340° |
| 2026-05-05 22:10 | 36.44918 | -85.13956 | 31893 ft | 423 kts | 340° |
| 2026-05-05 22:10 | 36.50684 | -85.15449 | 31901 ft | 424 kts | 339° |
| 2026-05-05 22:11 | 36.56445 | -85.16944 | 31901 ft | 423 kts | 340° |
| 2026-05-05 22:11 | 36.62211 | -85.18442 | 31904 ft | 423 kts | 340° |
| 2026-05-05 22:12 | 36.67940 | -85.19933 | 31906 ft | 422 kts | 339° |
| 2026-05-05 22:12 | 36.73682 | -85.21429 | 31906 ft | 422 kts | 339° |
| 2026-05-05 22:13 | 36.79431 | -85.22930 | 31898 ft | 422 kts | 339° |
| 2026-05-05 22:13 | 36.84190 | -85.24174 | 31910 ft | 422 kts | 339° |
| 2026-05-05 22:14 | 36.90868 | -85.25922 | 31930 ft | 421 kts | 339° |
| 2026-05-05 22:14 | 36.96606 | -85.27427 | 31899 ft | 421 kts | 339° |
| 2026-05-05 22:15 | 37.02335 | -85.28932 | 31888 ft | 420 kts | 339° |
| 2026-05-05 22:15 | 37.07081 | -85.30180 | 31887 ft | 420 kts | 339° |
| 2026-05-05 22:16 | 37.13731 | -85.31932 | 31882 ft | 420 kts | 339° |
| 2026-05-05 22:16 | 37.19446 | -85.33439 | 31884 ft | 419 kts | 338° |
| 2026-05-05 22:17 | 37.24190 | -85.34693 | 31872 ft | 419 kts | 338° |
| 2026-05-05 22:17 | 37.29882 | -85.36199 | 31874 ft | 419 kts | 338° |
| 2026-05-05 22:18 | 37.35597 | -85.37713 | 31863 ft | 419 kts | 338° |
| 2026-05-05 22:18 | 37.42234 | -85.39475 | 31875 ft | 420 kts | 338° |
| 2026-05-05 22:19 | 37.46981 | -85.40738 | 31864 ft | 420 kts | 338° |
| 2026-05-05 22:19 | 37.52703 | -85.42263 | 31872 ft | 420 kts | 338° |
| 2026-05-05 22:20 | 37.58436 | -85.43790 | 31843 ft | 424 kts | 338° |
| 2026-05-05 22:20 | 37.64213 | -85.45333 | 31848 ft | 424 kts | 338° |
| 2026-05-05 22:21 | 37.69994 | -85.46879 | 31835 ft | 425 kts | 338° |
| 2026-05-05 22:21 | 37.75752 | -85.48422 | 31832 ft | 426 kts | 338° |
| 2026-05-05 22:22 | 37.81530 | -85.49972 | 31827 ft | 425 kts | 337° |
| 2026-05-05 22:22 | 37.87314 | -85.51527 | 31872 ft | 425 kts | 338° |
| 2026-05-05 22:23 | 37.93126 | -85.53092 | 31838 ft | 428 kts | 338° |
| 2026-05-05 22:23 | 37.98957 | -85.54664 | 31843 ft | 428 kts | 338° |
| 2026-05-05 22:24 | 38.04733 | -85.56223 | 31843 ft | 428 kts | 338° |
| 2026-05-05 22:24 | 38.10579 | -85.57738 | 31824 ft | 433 kts | 341° |
| 2026-05-05 22:25 | 38.16557 | -85.58827 | 31825 ft | 434 kts | 341° |
| 2026-05-05 22:25 | 38.22524 | -85.59968 | 31831 ft | 434 kts | 341° |
| 2026-05-05 22:26 | 38.28477 | -85.61114 | 31831 ft | 434 kts | 341° |
| 2026-05-05 22:26 | 38.34441 | -85.62266 | 31838 ft | 434 kts | 341° |
| 2026-05-05 22:27 | 38.40368 | -85.63412 | 31837 ft | 434 kts | 341° |
| 2026-05-05 22:27 | 38.46327 | -85.64567 | 31842 ft | 434 kts | 341° |
| 2026-05-05 22:28 | 38.52297 | -85.65725 | 31841 ft | 434 kts | 341° |
| 2026-05-05 22:28 | 38.58246 | -85.66881 | 31868 ft | 433 kts | 340° |
| 2026-05-05 22:29 | 38.64159 | -85.68032 | 31832 ft | 432 kts | 340° |
| 2026-05-05 22:29 | 38.70104 | -85.69192 | 31860 ft | 432 kts | 340° |
| 2026-05-05 22:30 | 38.76046 | -85.70353 | 31854 ft | 432 kts | 340° |
| 2026-05-05 22:30 | 38.81977 | -85.71513 | 31880 ft | 432 kts | 340° |
| 2026-05-05 22:31 | 38.87910 | -85.72676 | 31848 ft | 431 kts | 340° |
| 2026-05-05 22:31 | 38.93796 | -85.73832 | 31840 ft | 431 kts | 340° |
| 2026-05-05 22:32 | 38.99721 | -85.74996 | 31822 ft | 431 kts | 340° |
| 2026-05-05 22:32 | 39.05635 | -85.76162 | 31864 ft | 430 kts | 340° |
| 2026-05-05 22:33 | 39.11544 | -85.77328 | 31819 ft | 429 kts | 340° |
| 2026-05-05 22:33 | 39.17440 | -85.78493 | 31813 ft | 429 kts | 340° |
| 2026-05-05 22:34 | 39.23294 | -85.79653 | 31825 ft | 429 kts | 340° |
| 2026-05-05 22:34 | 39.29182 | -85.80821 | 31852 ft | 429 kts | 340° |
| 2026-05-05 22:35 | 39.35072 | -85.81990 | 31725 ft | 428 kts | 340° |
| 2026-05-05 22:35 | 39.38012 | -85.82574 | 31522 ft | 428 kts | 340° |
| 2026-05-05 22:35 | 39.40921 | -85.83154 | 31307 ft | 429 kts | 340° |
| 2026-05-05 22:35 | 39.43858 | -85.83738 | 30723 ft | 426 kts | 341° |
| 2026-05-05 22:36 | 39.46799 | -85.84326 | 29822 ft | 431 kts | 341° |
| 2026-05-05 22:36 | 39.49785 | -85.84923 | 28793 ft | 437 kts | 341° |
| 2026-05-05 22:36 | 39.52784 | -85.85523 | 27976 ft | 440 kts | 342° |
| 2026-05-05 22:36 | 39.55830 | -85.86132 | 27094 ft | 443 kts | 343° |
| 2026-05-05 22:37 | 39.58897 | -85.86744 | 26018 ft | 449 kts | 343° |
| 2026-05-05 22:37 | 39.62005 | -85.87366 | 24964 ft | 455 kts | 344° |
| 2026-05-05 22:37 | 39.65148 | -85.87996 | 24216 ft | 456 kts | 344° |
| 2026-05-05 22:37 | 39.68226 | -85.88611 | 24121 ft | 439 kts | 344° |
| 2026-05-05 22:38 | 39.71151 | -85.89200 | 24121 ft | 427 kts | 344° |
| 2026-05-05 22:38 | 39.74079 | -85.89790 | 24022 ft | 428 kts | 344° |
| 2026-05-05 22:38 | 39.77037 | -85.90386 | 23869 ft | 435 kts | 344° |
| 2026-05-05 22:38 | 39.80043 | -85.90992 | 23868 ft | 440 kts | 344° |
| 2026-05-05 22:39 | 39.83077 | -85.91603 | 23866 ft | 442 kts | 344° |
| 2026-05-05 22:39 | 39.86123 | -85.92217 | 23877 ft | 443 kts | 344° |
| 2026-05-05 22:39 | 39.89165 | -85.92832 | 23878 ft | 443 kts | 344° |
| 2026-05-05 22:39 | 39.92207 | -85.93447 | 23879 ft | 443 kts | 344° |
| 2026-05-05 22:40 | 39.95252 | -85.94062 | 23905 ft | 443 kts | 344° |
| 2026-05-05 22:40 | 39.98295 | -85.94680 | 23924 ft | 443 kts | 344° |
| 2026-05-05 22:40 | 40.01292 | -85.95286 | 23907 ft | 444 kts | 344° |
| 2026-05-05 22:40 | 40.04340 | -85.95904 | 23904 ft | 444 kts | 344° |
| 2026-05-05 22:41 | 40.07390 | -85.96523 | 23903 ft | 444 kts | 344° |
| 2026-05-05 22:41 | 40.10443 | -85.97144 | 23885 ft | 444 kts | 344° |
| 2026-05-05 22:41 | 40.13496 | -85.97764 | 23884 ft | 444 kts | 344° |
| 2026-05-05 22:41 | 40.16548 | -85.98386 | 23889 ft | 444 kts | 344° |
| 2026-05-05 22:42 | 40.19598 | -85.99007 | 23901 ft | 444 kts | 344° |
| 2026-05-05 22:42 | 40.22655 | -85.99631 | 23897 ft | 444 kts | 344° |
| 2026-05-05 22:42 | 40.25690 | -86.00250 | 23900 ft | 445 kts | 344° |
| 2026-05-05 22:42 | 40.28712 | -86.00868 | 23895 ft | 445 kts | 344° |
| 2026-05-05 22:43 | 40.31766 | -86.01492 | 23897 ft | 445 kts | 344° |
| 2026-05-05 22:43 | 40.34821 | -86.02117 | 23898 ft | 445 kts | 344° |
| 2026-05-05 22:43 | 40.37881 | -86.02744 | 23906 ft | 445 kts | 344° |
| 2026-05-05 22:43 | 40.40937 | -86.03370 | 23915 ft | 444 kts | 343° |
| 2026-05-05 22:44 | 40.43992 | -86.03997 | 23911 ft | 445 kts | 343° |
| 2026-05-05 22:44 | 40.47052 | -86.04626 | 23899 ft | 445 kts | 343° |
| 2026-05-05 22:44 | 40.50080 | -86.05247 | 23879 ft | 436 kts | 343° |
| 2026-05-05 22:44 | 40.53057 | -86.05779 | 23514 ft | 433 kts | 350° |
| 2026-05-05 22:45 | 40.56052 | -86.05734 | 22836 ft | 436 kts | 354° |
| 2026-05-05 22:45 | 40.59073 | -86.05657 | 22263 ft | 432 kts | 354° |
| 2026-05-05 22:45 | 40.62066 | -86.05588 | 21664 ft | 429 kts | 354° |
| 2026-05-05 22:45 | 40.65042 | -86.05519 | 21085 ft | 427 kts | 354° |
| 2026-05-05 22:46 | 40.68011 | -86.05451 | 20511 ft | 426 kts | 354° |
| 2026-05-05 22:46 | 40.70971 | -86.05383 | 19843 ft | 427 kts | 354° |
| 2026-05-05 22:46 | 40.73940 | -86.05315 | 19269 ft | 426 kts | 355° |
| 2026-05-05 22:46 | 40.76899 | -86.05247 | 18701 ft | 426 kts | 355° |
| 2026-05-05 22:47 | 40.79822 | -86.05180 | 18131 ft | 427 kts | 355° |
| 2026-05-05 22:47 | 40.82790 | -86.05111 | 17485 ft | 426 kts | 355° |
| 2026-05-05 22:47 | 40.85747 | -86.05044 | 16936 ft | 425 kts | 355° |
| 2026-05-05 22:47 | 40.88695 | -86.04986 | 16394 ft | 421 kts | 353° |
| 2026-05-05 22:48 | 40.91537 | -86.05571 | 15811 ft | 407 kts | 335° |
| 2026-05-05 22:48 | 40.93995 | -86.07202 | 15450 ft | 386 kts | 318° |
| 2026-05-05 22:48 | 40.95913 | -86.09567 | 15030 ft | 371 kts | 303° |
| 2026-05-05 22:48 | 40.97242 | -86.12404 | 14588 ft | 358 kts | 289° |
| 2026-05-05 22:49 | 40.98211 | -86.15413 | 14145 ft | 353 kts | 287° |
| 2026-05-05 22:49 | 40.99055 | -86.18391 | 13714 ft | 350 kts | 285° |
| 2026-05-05 22:49 | 40.99841 | -86.21424 | 13213 ft | 347 kts | 284° |
| 2026-05-05 22:49 | 41.00581 | -86.24451 | 12765 ft | 344 kts | 284° |
| 2026-05-05 22:50 | 41.01293 | -86.27450 | 12333 ft | 340 kts | 283° |
| 2026-05-05 22:50 | 41.01985 | -86.30419 | 11919 ft | 336 kts | 283° |
| 2026-05-05 22:50 | 41.02663 | -86.33366 | 11550 ft | 331 kts | 283° |
| 2026-05-05 22:50 | 41.03318 | -86.36236 | 11386 ft | 321 kts | 283° |
| 2026-05-05 22:51 | 41.03951 | -86.39018 | 11234 ft | 310 kts | 283° |
| 2026-05-05 22:51 | 41.04562 | -86.41712 | 11104 ft | 300 kts | 283° |
| 2026-05-05 22:51 | 41.05266 | -86.44220 | 11022 ft | 292 kts | 294° |
| 2026-05-05 22:51 | 41.06232 | -86.46539 | 10858 ft | 284 kts | 294° |
| 2026-05-05 22:52 | 41.07164 | -86.48792 | 10698 ft | 275 kts | 294° |
| 2026-05-05 22:52 | 41.08066 | -86.50986 | 10581 ft | 267 kts | 294° |
| 2026-05-05 22:52 | 41.08946 | -86.53135 | 10450 ft | 265 kts | 294° |
| 2026-05-05 22:52 | 41.09823 | -86.55280 | 10327 ft | 265 kts | 295° |
| 2026-05-05 22:53 | 41.10699 | -86.57427 | 10204 ft | 264 kts | 294° |
| 2026-05-05 22:53 | 41.11568 | -86.59559 | 10076 ft | 262 kts | 294° |
| 2026-05-05 22:53 | 41.12479 | -86.61642 | 9938 ft | 263 kts | 304° |
| 2026-05-05 22:53 | 41.13818 | -86.63328 | 9791 ft | 266 kts | 314° |
| 2026-05-05 22:54 | 41.15194 | -86.64926 | 9670 ft | 267 kts | 314° |
| 2026-05-05 22:54 | 41.16596 | -86.66545 | 9535 ft | 267 kts | 314° |
| 2026-05-05 22:54 | 41.17996 | -86.68154 | 9404 ft | 266 kts | 314° |
| 2026-05-05 22:54 | 41.19393 | -86.69758 | 9282 ft | 266 kts | 314° |
| 2026-05-05 22:55 | 41.20793 | -86.71362 | 9158 ft | 265 kts | 314° |
| 2026-05-05 22:55 | 41.22187 | -86.72960 | 9028 ft | 264 kts | 314° |
| 2026-05-05 22:55 | 41.23570 | -86.74546 | 8904 ft | 263 kts | 314° |
| 2026-05-05 22:55 | 41.24954 | -86.76133 | 8779 ft | 263 kts | 314° |
| 2026-05-05 22:56 | 41.26339 | -86.77722 | 8658 ft | 262 kts | 314° |
| 2026-05-05 22:56 | 41.27698 | -86.79282 | 8541 ft | 262 kts | 314° |
| 2026-05-05 22:56 | 41.29081 | -86.80870 | 8411 ft | 261 kts | 314° |
| 2026-05-05 22:56 | 41.30453 | -86.82447 | 8306 ft | 261 kts | 314° |
| 2026-05-05 22:57 | 41.31817 | -86.84015 | 8190 ft | 258 kts | 314° |
| 2026-05-05 22:57 | 41.33169 | -86.85573 | 8050 ft | 256 kts | 314° |
| 2026-05-05 22:57 | 41.34516 | -86.87124 | 7930 ft | 256 kts | 314° |
| 2026-05-05 22:57 | 41.35859 | -86.88671 | 7818 ft | 256 kts | 314° |
| 2026-05-05 22:58 | 41.37206 | -86.90222 | 7690 ft | 255 kts | 314° |
| 2026-05-05 22:58 | 41.38529 | -86.91749 | 7567 ft | 255 kts | 314° |
| 2026-05-05 22:58 | 41.39864 | -86.93298 | 7457 ft | 254 kts | 313° |
| 2026-05-05 22:58 | 41.41167 | -86.94880 | 7318 ft | 253 kts | 314° |
| 2026-05-05 22:59 | 41.42459 | -86.96452 | 7207 ft | 252 kts | 314° |
| 2026-05-05 22:59 | 41.43752 | -86.98020 | 7089 ft | 251 kts | 314° |
| 2026-05-05 22:59 | 41.45045 | -86.99589 | 6970 ft | 251 kts | 313° |
| 2026-05-05 22:59 | 41.46091 | -87.01385 | 6831 ft | 245 kts | 294° |
| 2026-05-05 23:00 | 41.47640 | -87.05440 | 6592 ft | 245 kts | 295° |
| 2026-05-05 23:00 | 41.48414 | -87.07462 | 6487 ft | 245 kts | 295° |
| 2026-05-05 23:00 | 41.49175 | -87.09463 | 6376 ft | 245 kts | 295° |
| 2026-05-05 23:01 | 41.49943 | -87.11486 | 6257 ft | 245 kts | 295° |
| 2026-05-05 23:01 | 41.50709 | -87.13511 | 6127 ft | 244 kts | 295° |
| 2026-05-05 23:01 | 41.51471 | -87.15534 | 6039 ft | 244 kts | 294° |
| 2026-05-05 23:01 | 41.52104 | -87.17625 | 6027 ft | 244 kts | 290° |
| 2026-05-05 23:02 | 41.52715 | -87.19738 | 6002 ft | 244 kts | 290° |
| 2026-05-05 23:02 | 41.53331 | -87.21847 | 5995 ft | 244 kts | 292° |
| 2026-05-05 23:02 | 41.53951 | -87.23952 | 5990 ft | 244 kts | 292° |
| 2026-05-05 23:02 | 41.54571 | -87.26050 | 5987 ft | 244 kts | 292° |
| 2026-05-05 23:03 | 41.55186 | -87.28128 | 5989 ft | 244 kts | 292° |
| 2026-05-05 23:03 | 41.55810 | -87.30236 | 5993 ft | 244 kts | 292° |
| 2026-05-05 23:03 | 41.56434 | -87.32344 | 5988 ft | 244 kts | 292° |
| 2026-05-05 23:03 | 41.57058 | -87.34456 | 5982 ft | 245 kts | 292° |
| 2026-05-05 23:04 | 41.57678 | -87.36552 | 5984 ft | 238 kts | 292° |
| 2026-05-05 23:04 | 41.58265 | -87.38548 | 5964 ft | 225 kts | 292° |
| 2026-05-05 23:04 | 41.58822 | -87.40455 | 5800 ft | 217 kts | 292° |
| 2026-05-05 23:04 | 41.59362 | -87.42301 | 5645 ft | 209 kts | 292° |
| 2026-05-05 23:05 | 41.59891 | -87.44110 | 5514 ft | 210 kts | 292° |
| 2026-05-05 23:05 | 41.60415 | -87.45903 | 5405 ft | 210 kts | 292° |
| 2026-05-05 23:05 | 41.60938 | -87.47698 | 5331 ft | 200 kts | 292° |
| 2026-05-05 23:05 | 41.61414 | -87.49327 | 5264 ft | 179 kts | 292° |
| 2026-05-05 23:06 | 41.61847 | -87.50816 | 5078 ft | 166 kts | 292° |
| 2026-05-05 23:06 | 41.62324 | -87.52192 | 4958 ft | 157 kts | 306° |
| 2026-05-05 23:06 | 41.63008 | -87.53283 | 4896 ft | 150 kts | 311° |
| 2026-05-05 23:06 | 41.63704 | -87.54317 | 4716 ft | 148 kts | 311° |
| 2026-05-05 23:07 | 41.64370 | -87.55358 | 4459 ft | 148 kts | 310° |
| 2026-05-05 23:07 | 41.65065 | -87.56368 | 4270 ft | 148 kts | 313° |
| 2026-05-05 23:07 | 41.65764 | -87.57345 | 4062 ft | 147 kts | 313° |
| 2026-05-05 23:07 | 41.66472 | -87.58335 | 3881 ft | 147 kts | 313° |
| 2026-05-05 23:08 | 41.67178 | -87.59322 | 3643 ft | 146 kts | 313° |
| 2026-05-05 23:08 | 41.67881 | -87.60302 | 3451 ft | 146 kts | 313° |
| 2026-05-05 23:08 | 41.68584 | -87.61280 | 3259 ft | 146 kts | 313° |
| 2026-05-05 23:08 | 41.69285 | -87.62256 | 3059 ft | 145 kts | 313° |
| 2026-05-05 23:09 | 41.69980 | -87.63227 | 2852 ft | 145 kts | 313° |
| 2026-05-05 23:09 | 41.70674 | -87.64199 | 2669 ft | 145 kts | 313° |
| 2026-05-05 23:09 | 41.71370 | -87.65175 | 2497 ft | 145 kts | 312° |
| 2026-05-05 23:09 | 41.72055 | -87.66135 | 2317 ft | 144 kts | 312° |
| 2026-05-05 23:10 | 41.72745 | -87.67103 | 2128 ft | 144 kts | 312° |
| 2026-05-05 23:10 | 41.73431 | -87.68064 | 1932 ft | 142 kts | 313° |
| 2026-05-05 23:10 | 41.74116 | -87.69024 | 1760 ft | 143 kts | 313° |
| 2026-05-05 23:10 | 41.74803 | -87.69988 | 1579 ft | 143 kts | 311° |
| 2026-05-05 23:11 | 41.75488 | -87.70954 | 1363 ft | 143 kts | 313° |
| 2026-05-05 23:11 | 41.76168 | -87.71908 | 1202 ft | 139 kts | 313° |
| 2026-05-05 23:11 | 41.76853 | -87.72874 | 983 ft | 147 kts | 313° |
| 2026-05-05 23:11 | 41.77548 | -87.73838 | 783 ft | 143 kts | 313° |
| 2026-05-05 23:12 | 41.78174 | -87.74746 | 647 ft | 128 kts | 315° |
| 2026-05-05 23:12 | 41.78714 | -87.75489 | 634 ft | 89 kts | 314° |
| 2026-05-05 23:12 | 41.79016 | -87.75791 | 632 ft | 30 kts | 347° |
| 2026-05-05 23:12 | 41.79068 | -87.75812 | 633 ft | 0 kts | 340° |
| 2026-05-05 23:13 | 41.79078 | -87.75817 | 636 ft | 3 kts | 340° |
| 2026-05-05 23:13 | 41.79107 | -87.75824 | 634 ft | 5 kts | 1° |
| 2026-05-05 23:14 | 41.79118 | -87.75806 | 634 ft | 3 kts | 70° |
| 2026-05-05 23:14 | 41.79126 | -87.75770 | 631 ft | 6 kts | 75° |
| 2026-05-05 23:14 | 41.79127 | -87.75707 | 631 ft | 8 kts | 89° |
| 2026-05-05 23:14 | 41.79105 | -87.75636 | 636 ft | 10 kts | 123° |
| 2026-05-05 23:15 | 41.79055 | -87.75561 | 637 ft | 12 kts | 134° |
| 2026-05-05 23:15 | 41.78992 | -87.75473 | 631 ft | 14 kts | 134° |
| 2026-05-05 23:15 | 41.78917 | -87.75369 | 631 ft | 16 kts | 134° |
| 2026-05-05 23:15 | 41.78863 | -87.75295 | 630 ft | 12 kts | 133° |
| 2026-05-05 23:16 | 41.78797 | -87.75200 | 633 ft | 15 kts | 133° |
| 2026-05-05 23:16 | 41.78751 | -87.75134 | 635 ft | 7 kts | 134° |
| 2026-05-05 23:16 | 41.78713 | -87.75082 | 631 ft | 9 kts | 134° |
| 2026-05-05 23:16 | 41.78659 | -87.75009 | 631 ft | 12 kts | 134° |
| 2026-05-05 23:17 | 41.78596 | -87.74918 | 631 ft | 14 kts | 133° |
| 2026-05-05 23:17 | 41.78542 | -87.74806 | 633 ft | 15 kts | 70° |
| 2026-05-05 23:17 | 41.78549 | -87.74705 | 636 ft | 8 kts | 130° |
| 2026-05-05 23:17 | 41.78503 | -87.74637 | 634 ft | 11 kts | 132° |
| 2026-05-05 23:18 | 41.78443 | -87.74554 | 637 ft | 14 kts | 134° |
| 2026-05-05 23:18 | 41.78372 | -87.74455 | 631 ft | 16 kts | 132° |
| 2026-05-05 23:18 | 41.78358 | -87.74363 | 633 ft | 10 kts | 59° |
| 2026-05-05 23:18 | 41.78410 | -87.74296 | 635 ft | 11 kts | 42° |
| 2026-05-05 23:19 | 41.78444 | -87.74259 | 631 ft | 4 kts | 30° |
| 2026-05-05 23:19 | 41.78476 | -87.74248 | 634 ft | 3 kts | 2° |
| 2026-05-05 23:19 | 41.78495 | -87.74252 | 635 ft | 1 kts | 346° |
| 2026-05-05 23:19 | 41.78505 | -87.74256 | 638 ft | 0 kts | 345° |
| 2026-05-05 23:20 | 41.78509 | -87.74257 | 637 ft | 0 kts | 344° |